Time;durP1;ratioP1;P1;durP2;ratioP2;P2;SDS_P1;SDS_P2;PMS_P1;PMS_P2;Temp;Humidity;BMP_temperature;BMP_pressure;BME280_temperature;BME280_humidity;BME280_pressure;Samples;Min_cycle;Max_cycle;Signal;HPM_P1;HPM_P2
2021/07/30 00:00:09;;;;;;;7.95;5.55;;;;;;;18.83;70.02;100881.27;1899698;75;21031;-60
2021/07/30 00:02:38;;;;;;;10.18;5.83;;;;;;;18.71;70.81;100882.11;1899828;75;21035;-61
2021/07/30 00:05:08;;;;;;;10.43;5.60;;;;;;;18.65;71.02;100874.55;1899858;75;21114;-60
2021/07/30 00:07:37;;;;;;;9.73;5.60;;;;;;;18.58;71.31;100881.27;1899543;75;21097;-61
2021/07/30 00:10:06;;;;;;;13.38;6.00;;;;;;;18.52;71.50;100883.41;1899699;75;21027;-60
2021/07/30 00:12:35;;;;;;;9.60;4.97;;;;;;;18.48;71.72;100875.71;1899716;75;21046;-60
2021/07/30 00:15:06;;;;;;;10.98;5.05;;;;;;;18.45;71.49;100880.79;1899686;75;21055;-61
2021/07/30 00:17:35;;;;;;;8.83;5.62;;;;;;;18.38;71.59;100874.18;1899712;75;21596;-61
2021/07/30 00:20:08;;;;;;;10.78;5.20;;;;;;;18.33;71.39;100874.97;1899610;75;21470;-61
2021/07/30 00:22:36;;;;;;;12.50;6.47;;;;;;;18.30;71.27;100873.88;1899843;75;21031;-61
2021/07/30 00:25:06;;;;;;;18.62;5.17;;;;;;;18.25;71.44;100870.17;1899661;75;21074;-60
2021/07/30 00:27:35;;;;;;;10.85;6.47;;;;;;;18.24;71.81;100872.95;1899692;75;21122;-60
2021/07/30 00:30:04;;;;;;;14.85;5.90;;;;;;;18.24;71.75;100871.61;1899745;75;21036;-60
2021/07/30 00:32:33;;;;;;;12.30;5.80;;;;;;;18.26;71.53;100874.56;1899703;75;21035;-61
2021/07/30 00:35:01;;;;;;;12.03;5.47;;;;;;;18.27;71.37;100875.41;1899647;75;21098;-61
2021/07/30 00:37:30;;;;;;;11.83;5.35;;;;;;;18.24;71.23;100868.95;1899704;75;21121;-60
2021/07/30 00:39:59;;;;;;;11.95;5.25;;;;;;;18.25;71.15;100873.33;1899812;75;21023;-61
2021/07/30 00:42:31;;;;;;;9.83;4.97;;;;;;;18.23;71.04;100871.25;1899653;75;21132;-60
2021/07/30 00:44:59;;;;;;;8.18;5.33;;;;;;;18.22;71.01;100868.20;1899578;75;21040;-60
2021/07/30 00:47:29;;;;;;;10.68;5.47;;;;;;;18.19;71.01;100870.61;1899663;75;21563;-61
2021/07/30 00:49:59;;;;;;;11.97;4.53;;;;;;;18.13;71.02;100862.56;1898470;75;21035;-60
2021/07/30 00:52:28;;;;;;;14.40;4.80;;;;;;;18.11;71.11;100860.94;1899800;75;21097;-60
2021/07/30 00:54:57;;;;;;;15.45;5.97;;;;;;;18.10;70.85;100861.43;1899716;75;21043;-60
2021/07/30 00:57:26;;;;;;;14.83;5.78;;;;;;;18.07;70.70;100864.30;1899681;75;20996;-60
2021/07/30 00:59:55;;;;;;;20.10;8.33;;;;;;;18.07;70.59;100863.45;1899546;75;21181;-61
2021/07/30 01:02:24;;;;;;;28.23;18.77;;;;;;;18.05;70.52;100861.38;1899569;75;21059;-61
2021/07/30 01:04:53;;;;;;;39.67;22.58;;;;;;;18.04;70.42;100868.52;1899705;75;21478;-60
2021/07/30 01:07:22;;;;;;;21.40;14.25;;;;;;;18.06;70.21;100871.09;1899857;75;21027;-61
2021/07/30 01:09:51;;;;;;;11.35;7.35;;;;;;;18.02;70.24;100862.45;1899653;75;21478;-60
2021/07/30 01:12:20;;;;;;;9.95;4.80;;;;;;;17.97;70.30;100865.05;1899567;75;21474;-61
2021/07/30 01:14:49;;;;;;;11.10;4.78;;;;;;;17.93;70.13;100859.08;1900687;74;21051;-61
2021/07/30 01:17:18;;;;;;;10.43;4.78;;;;;;;17.90;69.98;100869.94;1919292;75;21461;-61
2021/07/30 01:19:47;;;;;;;12.30;5.22;;;;;;;17.85;70.01;100865.39;1919376;74;21100;-61
2021/07/30 01:22:24;;;;;;;10.90;6.00;;;;;;;17.81;70.32;100865.20;1919377;75;21050;-60
2021/07/30 01:24:53;;;;;;;12.45;7.72;;;;;;;17.78;70.44;100858.73;1919124;75;20994;-61
2021/07/30 01:27:23;;;;;;;16.70;10.20;;;;;;;17.78;70.49;100864.06;1919274;75;21434;-61
2021/07/30 01:29:51;;;;;;;6.15;4.47;;;;;;;17.74;70.55;100873.61;1919293;74;21465;-61
2021/07/30 01:32:20;;;;;;;7.90;4.35;;;;;;;17.71;70.40;100872.96;1919250;75;21035;-61
2021/07/30 01:34:49;;;;;;;7.15;4.22;;;;;;;17.65;70.35;100876.89;1919260;75;21557;-61
2021/07/30 01:37:18;;;;;;;5.25;4.03;;;;;;;17.56;70.32;100865.52;1919133;74;21050;-62
2021/07/30 01:39:47;;;;;;;9.10;4.40;;;;;;;17.50;70.60;100865.91;1919502;74;21527;-61
2021/07/30 01:42:15;;;;;;;5.92;4.55;;;;;;;17.45;70.72;100870.70;1919223;75;21505;-60
2021/07/30 01:44:44;;;;;;;10.00;4.72;;;;;;;17.42;71.10;100865.57;1919395;75;20998;-61
2021/07/30 01:47:13;;;;;;;10.95;5.83;;;;;;;17.40;71.26;100870.14;1919254;74;21018;-60
2021/07/30 01:49:42;;;;;;;11.18;7.35;;;;;;;17.35;71.65;100867.31;1919200;75;21515;-61
2021/07/30 01:52:11;;;;;;;12.58;7.65;;;;;;;17.34;71.69;100873.58;1919224;75;21038;-61
2021/07/30 01:54:40;;;;;;;10.25;6.62;;;;;;;17.31;71.85;100871.11;1919423;75;21097;-61
2021/07/30 01:57:08;;;;;;;12.68;6.50;;;;;;;17.30;71.64;100860.10;1919241;74;21519;-61
2021/07/30 01:59:40;;;;;;;11.63;5.80;;;;;;;17.31;71.56;100868.93;1919228;75;21014;-61
2021/07/30 02:02:08;;;;;;;10.80;5.03;;;;;;;17.28;71.63;100873.98;1919212;75;21026;-60
2021/07/30 02:04:37;;;;;;;6.17;4.67;;;;;;;17.23;71.87;100873.43;1919084;75;21054;-61
2021/07/30 02:07:06;;;;;;;7.22;4.47;;;;;;;17.18;71.77;100878.19;1919256;75;21570;-61
2021/07/30 02:09:34;;;;;;;9.93;5.12;;;;;;;17.14;71.80;100868.22;1919273;74;21462;-60
2021/07/30 02:12:03;;;;;;;8.83;4.72;;;;;;;17.10;72.31;100870.70;1919233;74;21027;-60
2021/07/30 02:14:32;;;;;;;11.05;4.72;;;;;;;17.09;72.16;100874.78;1919334;75;21018;-60
2021/07/30 02:17:01;;;;;;;11.15;4.78;;;;;;;17.07;72.35;100878.02;1905997;75;21059;-60
2021/07/30 02:19:30;;;;;;;11.43;5.67;;;;;;;17.05;72.42;100875.45;1899668;75;21063;-61
2021/07/30 02:21:59;;;;;;;13.03;5.08;;;;;;;17.05;72.44;100871.95;1899581;75;21478;-61
2021/07/30 02:24:28;;;;;;;7.42;5.05;;;;;;;17.06;72.33;100875.85;1899769;75;21117;-61
2021/07/30 02:26:56;;;;;;;11.03;4.40;;;;;;;17.06;72.43;100874.97;1899613;75;21078;-61
2021/07/30 02:29:25;;;;;;;10.78;4.60;;;;;;;17.06;72.44;100881.63;1899672;75;21113;-62
2021/07/30 02:31:54;;;;;;;12.43;5.12;;;;;;;17.07;72.31;100878.88;1899620;75;21063;-60
2021/07/30 02:34:23;;;;;;;10.08;4.85;;;;;;;17.05;72.34;100879.45;1899628;75;21043;-61
2021/07/30 02:36:52;;;;;;;16.50;5.60;;;;;;;17.07;72.22;100886.01;1899675;75;21137;-61
2021/07/30 02:39:21;;;;;;;13.60;4.97;;;;;;;17.08;72.41;100888.58;1899750;75;21039;-61
2021/07/30 02:41:50;;;;;;;8.33;4.62;;;;;;;17.14;72.48;100887.33;1899531;75;21042;-61
2021/07/30 02:44:18;;;;;;;10.70;5.03;;;;;;;17.19;72.31;100874.59;1899651;75;21051;-61
2021/07/30 02:46:47;;;;;;;7.85;4.17;;;;;;;17.27;71.99;100888.72;1899635;75;21059;-61
2021/07/30 02:49:16;;;;;;;10.15;4.50;;;;;;;17.34;71.64;100886.04;1899755;75;21047;-60
2021/07/30 02:51:45;;;;;;;10.70;4.45;;;;;;;17.40;71.55;100888.78;1899652;75;21031;-61
2021/07/30 02:54:13;;;;;;;7.05;4.58;;;;;;;17.45;71.31;100875.54;1899661;75;21116;-61
2021/07/30 02:56:42;;;;;;;10.45;4.17;;;;;;;17.53;71.04;100878.53;1899640;75;21439;-61
2021/07/30 02:59:10;;;;;;;11.28;4.67;;;;;;;17.63;70.66;100878.80;1899599;75;21093;-61
2021/07/30 03:01:39;;;;;;;7.42;4.10;;;;;;;17.75;70.45;100881.11;1899641;75;21050;-61
2021/07/30 03:04:08;;;;;;;9.68;4.03;;;;;;;17.93;70.17;100881.23;1899856;75;21031;-60
2021/07/30 03:06:36;;;;;;;9.83;4.40;;;;;;;18.18;69.54;100888.03;1899626;75;21078;-60
2021/07/30 03:09:05;;;;;;;7.08;4.30;;;;;;;18.35;68.80;100886.38;1899506;75;21067;-61
2021/07/30 03:11:34;;;;;;;10.00;4.65;;;;;;;18.45;68.29;100883.95;1899603;75;21051;-61
2021/07/30 03:14:03;;;;;;;9.38;3.90;;;;;;;18.60;67.84;100892.68;1899760;75;21027;-61
2021/07/30 03:16:32;;;;;;;12.28;4.53;;;;;;;18.70;67.58;100899.92;1902581;74;21027;-61
2021/07/30 03:19:00;;;;;;;11.50;4.83;;;;;;;18.74;67.02;100897.02;1919198;75;21169;-60
2021/07/30 03:21:29;;;;;;;7.50;4.17;;;;;;;18.75;67.02;100893.41;1919264;75;21023;-61
2021/07/30 03:23:58;;;;;;;10.03;4.37;;;;;;;18.81;66.98;100899.20;1919242;75;21136;-61
2021/07/30 03:26:28;;;;;;;11.80;4.53;;;;;;;18.88;66.65;100901.78;1919184;75;21093;-60
2021/07/30 03:28:56;;;;;;;8.65;4.28;;;;;;;19.00;66.30;100908.56;1919218;75;21093;-60
2021/07/30 03:31:25;;;;;;;9.25;4.15;;;;;;;19.15;65.98;100896.77;1919229;75;21116;-60
2021/07/30 03:33:54;;;;;;;8.13;3.80;;;;;;;19.28;65.65;100894.06;1919187;75;21085;-60
2021/07/30 03:36:23;;;;;;;12.18;4.35;;;;;;;19.40;65.37;100886.95;1919120;75;21101;-61
2021/07/30 03:38:52;;;;;;;13.20;4.60;;;;;;;19.51;64.98;100889.67;1919214;75;20995;-61
2021/07/30 03:41:21;;;;;;;14.10;5.60;;;;;;;19.59;63.89;100884.63;1919159;75;21580;-60
2021/07/30 03:43:50;;;;;;;12.75;5.47;;;;;;;19.62;63.72;100887.55;1919208;75;21093;-59
2021/07/30 03:46:19;;;;;;;8.50;4.65;;;;;;;19.65;63.71;100881.98;1919162;75;21054;-58
2021/07/30 03:48:47;;;;;;;11.35;3.70;;;;;;;19.79;63.84;100891.19;1919053;75;21030;-59
2021/07/30 03:51:16;;;;;;;8.70;3.95;;;;;;;19.92;63.56;100887.09;1919294;75;21046;-59
2021/07/30 03:53:45;;;;;;;8.63;4.05;;;;;;;20.09;63.30;100887.14;1919280;74;21112;-59
2021/07/30 03:56:16;;;;;;;9.73;4.12;;;;;;;20.23;62.42;100880.25;1919296;75;21508;-58
2021/07/30 03:58:46;;;;;;;6.55;3.40;;;;;;;20.37;61.94;100885.00;1919089;74;21026;-60
2021/07/30 04:01:15;;;;;;;10.15;3.95;;;;;;;20.49;61.55;100882.71;1919023;74;21089;-60
2021/07/30 04:03:44;;;;;;;11.08;4.72;;;;;;;20.63;61.56;100884.31;1919129;75;21097;-60
2021/07/30 04:06:13;;;;;;;10.93;5.50;;;;;;;20.86;61.52;100886.97;1919171;75;21466;-61
2021/07/30 04:08:43;;;;;;;10.93;5.08;;;;;;;21.06;61.13;100886.21;1919272;75;21026;-60
2021/07/30 04:11:12;;;;;;;13.53;4.45;;;;;;;21.23;60.58;100886.67;1919233;75;21031;-61
2021/07/30 04:13:41;;;;;;;8.90;4.00;;;;;;;21.43;60.33;100896.59;1918999;75;21505;-62
2021/07/30 04:16:10;;;;;;;9.55;4.28;;;;;;;21.64;59.61;100893.17;1919139;75;21027;-62
2021/07/30 04:18:38;;;;;;;9.30;4.65;;;;;;;21.86;59.27;100892.22;1919143;74;21062;-61
2021/07/30 04:21:09;;;;;;;9.55;4.75;;;;;;;22.11;58.34;100893.19;1919107;75;21116;-62
2021/07/30 04:23:38;;;;;;;10.90;4.42;;;;;;;22.41;58.19;100891.55;1919058;75;21031;-61
2021/07/30 04:26:08;;;;;;;12.00;3.90;;;;;;;22.63;56.75;100891.00;1919118;75;21093;-63
2021/07/30 04:28:37;;;;;;;10.10;6.25;;;;;;;22.90;56.65;100885.88;1919132;75;21097;-62
2021/07/30 04:31:06;;;;;;;11.63;7.10;;;;;;;23.17;55.91;100887.63;1919171;75;21180;-62
2021/07/30 04:33:35;;;;;;;14.18;5.10;;;;;;;23.43;55.64;100884.76;1919159;75;21551;-61
2021/07/30 04:36:04;;;;;;;12.82;5.22;;;;;;;23.69;55.02;100888.23;1919180;75;21140;-61
2021/07/30 04:38:33;;;;;;;15.08;7.33;;;;;;;23.95;54.82;100879.62;1919178;75;21104;-61
2021/07/30 04:41:06;;;;;;;20.80;7.12;;;;;;;24.15;53.78;100878.59;1919103;74;21002;-61
2021/07/30 04:43:34;;;;;;;;;;;;;;;24.47;53.85;100877.36;1922015;74;21050;-61
2021/07/30 04:46:04;;;;;;;13.45;4.85;;;;;;;24.85;54.32;100875.54;1919190;75;20114;-62
2021/07/30 04:48:33;;;;;;;10.08;4.67;;;;;;;25.17;53.58;100876.40;1919262;73;21034;-61
2021/07/30 04:51:02;;;;;;;14.68;4.12;;;;;;;25.49;52.85;100879.62;1919188;75;21096;-61
2021/07/30 04:53:31;;;;;;;10.95;3.95;;;;;;;25.76;52.09;100880.87;1919131;75;21046;-62
2021/07/30 04:56:00;;;;;;;15.43;4.50;;;;;;;25.93;50.77;100878.34;1919191;74;21089;-62
2021/07/30 04:58:28;;;;;;;8.25;3.52;;;;;;;26.03;50.38;100874.23;1919302;75;21022;-61
2021/07/30 05:00:57;;;;;;;11.28;3.58;;;;;;;26.19;49.44;100870.27;1919170;75;21078;-61
2021/07/30 05:03:26;;;;;;;11.10;3.62;;;;;;;26.23;48.35;100872.14;1919120;75;21023;-61
2021/07/30 05:05:55;;;;;;;6.05;3.42;;;;;;;26.37;48.09;100867.52;1919053;74;21116;-61
2021/07/30 05:08:24;;;;;;;8.95;3.02;;;;;;;26.53;48.03;100868.11;1919160;75;21550;-61
2021/07/30 05:10:52;;;;;;;5.72;2.77;;;;;;;26.86;47.86;100873.19;1918820;75;21096;-61
2021/07/30 05:13:21;;;;;;;9.23;3.55;;;;;;;27.06;46.51;100860.77;1919293;75;21112;-61
2021/07/30 05:15:50;;;;;;;7.15;3.42;;;;;;;27.18;45.74;100856.72;1919108;75;21191;-62
2021/07/30 05:18:18;;;;;;;9.43;3.90;;;;;;;27.40;45.85;100859.32;1919041;74;21062;-62
2021/07/30 05:20:47;;;;;;;10.08;3.42;;;;;;;27.68;45.29;100846.83;1919368;75;21524;-61
2021/07/30 05:23:16;;;;;;;13.98;3.65;;;;;;;27.90;44.57;100846.16;1911834;75;21109;-61
2021/07/30 05:25:53;;;;;;;12.35;3.55;;;;;;;28.16;44.26;100844.27;1897645;75;21016;-61
2021/07/30 05:35:39;;;;;;;9.18;3.50;;;;;;;29.00;43.06;100845.50;1898319;75;21133;-61
2021/07/30 05:38:08;;;;;;;11.43;4.08;;;;;;;29.30;42.75;100854.33;1895500;76;21205;-62
2021/07/30 05:40:36;;;;;;;17.20;3.87;;;;;;;29.60;42.59;100850.72;1905870;75;21470;-61
2021/07/30 05:43:05;;;;;;;11.50;3.10;;;;;;;29.87;42.26;100845.75;1919228;75;21007;-61
2021/07/30 05:45:35;;;;;;;10.75;3.35;;;;;;;30.12;41.98;100847.72;1919188;74;21058;-62
2021/07/30 05:48:05;;;;;;;12.60;3.80;;;;;;;30.44;41.59;100843.50;1919156;75;21119;-61
2021/07/30 05:50:34;;;;;;;7.35;3.58;;;;;;;30.73;41.05;100846.19;1919138;75;21555;-62
2021/07/30 05:53:03;;;;;;;11.43;3.30;;;;;;;31.02;40.60;100846.34;1919164;75;21442;-61
2021/07/30 05:55:32;;;;;;;7.58;3.30;;;;;;;31.33;39.92;100844.68;1919289;75;21034;-61
2021/07/30 05:58:01;;;;;;;8.15;2.70;;;;;;;31.57;39.60;100848.08;1919036;75;21058;-62
2021/07/30 06:00:29;;;;;;;7.40;3.20;;;;;;;31.68;37.97;100844.83;1919146;75;21117;-61
2021/07/30 06:02:58;;;;;;;10.78;3.20;;;;;;;31.68;37.14;100847.55;1919158;75;21110;-61
2021/07/30 06:05:26;;;;;;;9.75;2.83;;;;;;;31.83;37.33;100841.48;1919089;75;21109;-61
2021/07/30 06:07:57;;;;;;;10.15;2.92;;;;;;;32.00;36.50;100833.02;1919193;75;21050;-61
2021/07/30 06:10:27;;;;;;;5.72;2.37;;;;;;;32.20;36.28;100835.91;1919032;75;21039;-63
2021/07/30 06:12:55;;;;;;;7.58;2.83;;;;;;;32.40;34.30;100834.67;1919140;74;21149;-61
2021/07/30 06:15:24;;;;;;;8.48;2.83;;;;;;;32.62;33.22;100834.07;1919120;74;21442;-61
2021/07/30 06:17:53;;;;;;;6.28;2.58;;;;;;;32.87;32.91;100831.66;1919234;75;21104;-61
2021/07/30 06:20:24;;;;;;;7.55;3.08;;;;;;;33.05;31.20;100837.37;1919096;74;21120;-61
2021/07/30 06:22:53;;;;;;;7.10;2.77;;;;;;;33.12;31.46;100831.95;1919042;75;21078;-62
2021/07/30 06:25:21;;;;;;;7.17;2.77;;;;;;;33.36;31.27;100825.06;1919093;75;21063;-61
2021/07/30 06:27:50;;;;;;;9.30;3.17;;;;;;;33.54;30.60;100826.34;1919152;75;21104;-62
2021/07/30 06:30:19;;;;;;;8.15;2.62;;;;;;;33.73;30.49;100826.89;1919258;75;21062;-61
2021/07/30 06:32:48;;;;;;;7.17;2.85;;;;;;;33.89;29.92;100825.62;1919119;74;21112;-61
2021/07/30 06:35:16;;;;;;;11.43;2.65;;;;;;;34.09;28.60;100831.06;1919133;75;21510;-61
2021/07/30 06:37:45;;;;;;;6.35;2.83;;;;;;;34.52;28.92;100815.50;1919215;75;21002;-61
2021/07/30 06:40:15;;;;;;;5.15;3.05;;;;;;;34.52;28.92;100815.50;1919126;75;21055;-61
2021/07/30 06:42:43;;;;;;;6.58;2.87;;;;;;;34.70;28.53;100811.27;1919138;74;21089;-61
2021/07/30 06:45:12;;;;;;;12.58;3.02;;;;;;;34.80;28.66;100812.98;1919083;75;21124;-62
2021/07/30 06:47:41;;;;;;;10.25;3.17;;;;;;;35.03;28.31;100815.18;1919265;75;21007;-62
2021/07/30 06:50:10;;;;;;;9.10;3.00;;;;;;;35.05;27.81;100811.69;1919010;75;21066;-62
2021/07/30 06:52:39;;;;;;;6.75;3.12;;;;;;;35.26;28.00;100810.52;1919244;75;21105;-62
2021/07/30 06:55:09;;;;;;;9.73;3.35;;;;;;;35.45;27.90;100818.29;1919338;75;21222;-62
2021/07/30 06:57:37;;;;;;;8.80;2.98;;;;;;;35.77;28.12;100812.77;1919117;74;21085;-62
2021/07/30 07:00:07;;;;;;;7.30;2.80;;;;;;;36.09;27.37;100812.11;1919116;75;21100;-61
2021/07/30 07:02:36;;;;;;;5.83;2.95;;;;;;;36.30;26.80;100817.73;1919128;75;21063;-62
2021/07/30 07:05:06;;;;;;;8.78;3.08;;;;;;;36.58;26.27;100808.65;1919154;75;21054;-61
2021/07/30 07:07:34;;;;;;;6.45;2.80;;;;;;;36.66;25.26;100811.06;1919200;75;21055;-61
2021/07/30 07:10:04;;;;;;;8.35;3.08;;;;;;;36.66;25.17;100811.06;1919107;75;21026;-61
2021/07/30 07:12:32;;;;;;;9.43;3.00;;;;;;;36.74;24.83;100810.76;1919203;74;21003;-61
2021/07/30 07:15:01;;;;;;;5.95;2.83;;;;;;;36.90;24.87;100808.73;1919113;74;21026;-62
2021/07/30 07:17:30;;;;;;;7.83;2.72;;;;;;;37.06;25.00;100809.16;1919125;75;21022;-61
2021/07/30 07:19:58;;;;;;;10.40;3.05;;;;;;;37.10;24.23;100802.13;1910883;74;21164;-61
2021/07/30 07:22:29;;;;;;;7.72;3.05;;;;;;;37.22;25.04;100800.30;1899486;75;21039;-61
2021/07/30 07:24:58;;;;;;;6.08;2.50;;;;;;;37.61;25.13;100805.33;1899484;75;21132;-61
2021/07/30 07:27:27;;;;;;;7.95;3.10;;;;;;;37.98;24.20;100799.09;1899495;75;21079;-61
2021/07/30 07:29:55;;;;;;;10.15;3.05;;;;;;;38.17;24.17;100801.19;1899687;75;21419;-61
2021/07/30 07:32:24;;;;;;;8.53;3.30;;;;;;;38.42;24.14;100794.02;1899584;74;21047;-61
2021/07/30 07:34:55;;;;;;;8.70;3.17;;;;;;;38.53;23.67;100792.83;1899563;75;21059;-61
2021/07/30 07:37:23;;;;;;;4.78;2.87;;;;;;;38.65;23.90;100785.96;1899692;75;21101;-61
2021/07/30 07:39:52;;;;;;;5.17;2.90;;;;;;;38.73;24.05;100791.05;1899675;75;21043;-61
2021/07/30 07:42:20;;;;;;;8.03;3.20;;;;;;;38.90;24.11;100791.94;1899383;74;21039;-61
2021/07/30 07:44:53;;;;;;;6.90;3.15;;;;;;;39.02;23.66;100791.90;1899713;75;21078;-61
2021/07/30 07:47:21;;;;;;;6.28;2.85;;;;;;;39.06;23.66;100791.69;1899588;75;21422;-61
2021/07/30 07:49:50;;;;;;;10.48;3.12;;;;;;;39.03;23.02;100790.83;1899599;75;21011;-62
2021/07/30 07:52:19;;;;;;;9.73;3.42;;;;;;;38.78;23.14;100786.48;1899492;75;21110;-61
2021/07/30 07:54:48;;;;;;;7.85;3.27;;;;;;;38.59;23.39;100783.10;1899384;75;21518;-62
2021/07/30 07:57:17;;;;;;;7.20;3.10;;;;;;;38.86;23.84;100787.99;1899479;75;21140;-62
2021/07/30 07:59:46;;;;;;;8.88;3.10;;;;;;;38.99;22.98;100784.09;1899593;75;21145;-61
2021/07/30 08:02:15;;;;;;;9.75;3.25;;;;;;;38.95;22.56;100782.37;1899799;75;21137;-61
2021/07/30 08:04:44;;;;;;;7.95;3.05;;;;;;;39.19;22.85;100778.97;1899570;74;21548;-61
2021/07/30 08:07:17;;;;;;;7.12;3.20;;;;;;;39.46;22.44;100770.08;1899488;75;21448;-61
2021/07/30 08:09:43;;;;;;;11.15;3.10;;;;;;;39.61;22.07;100779.67;1899667;75;21035;-61
2021/07/30 08:12:11;;;;;;;7.37;3.05;;;;;;;39.66;22.10;100771.49;1899669;75;21457;-62
2021/07/30 08:14:40;;;;;;;6.60;2.98;;;;;;;39.44;21.81;100767.27;1899664;75;21121;-61
2021/07/30 08:17:09;;;;;;;9.55;3.50;;;;;;;39.37;22.13;100761.92;1899633;75;21055;-61
2021/07/30 08:19:38;;;;;;;6.00;3.50;;;;;;;39.58;22.11;100767.22;1899492;75;21051;-62
2021/07/30 08:22:07;;;;;;;10.32;4.03;;;;;;;39.70;21.64;100767.96;1908857;74;21113;-62
2021/07/30 08:24:36;;;;;;;6.58;3.00;;;;;;;39.71;21.58;100762.75;1909007;75;21071;-62
2021/07/30 08:27:10;;;;;;;9.08;2.98;;;;;;;39.88;21.52;100756.34;1909038;75;21465;-61
2021/07/30 08:29:38;;;;;;;9.28;3.75;;;;;;;39.88;21.01;100757.72;1909064;75;21003;-61
2021/07/30 08:32:08;;;;;;;9.93;3.35;;;;;;;39.92;21.35;100757.00;1909112;75;21071;-63
2021/07/30 08:34:41;;;;;;;9.73;3.55;;;;;;;39.98;21.03;100748.80;1909013;75;21098;-62
2021/07/30 08:37:10;;;;;;;9.58;3.52;;;;;;;39.74;21.27;100749.82;1909018;74;21553;-62
2021/07/30 08:39:39;;;;;;;13.58;3.50;;;;;;;39.50;21.31;100756.09;1909658;75;21030;-61
2021/07/30 08:42:08;;;;;;;7.47;3.47;;;;;;;39.56;21.42;100750.97;1912406;75;21430;-61
2021/07/30 08:44:38;;;;;;;8.35;3.33;;;;;;;39.66;20.33;100750.83;1912120;75;21014;-61
2021/07/30 08:47:07;;;;;;;5.35;3.22;;;;;;;39.80;20.65;100747.14;1912197;75;21222;-61
2021/07/30 08:49:37;;;;;;;10.72;2.98;;;;;;;39.91;20.25;100748.98;1912182;75;21022;-60
2021/07/30 08:52:11;;;;;;;11.40;3.40;;;;;;;40.20;20.65;100744.11;1912162;75;21104;-60
2021/07/30 08:54:41;;;;;;;11.75;3.37;;;;;;;40.42;21.25;100744.67;1912170;75;21066;-60
2021/07/30 08:57:13;;;;;;;9.85;3.10;;;;;;;40.64;20.80;100748.21;1912100;75;21368;-61
2021/07/30 08:59:43;;;;;;;8.20;3.17;;;;;;;40.82;19.83;100742.91;1912253;75;21073;-61
2021/07/30 09:02:11;;;;;;;6.00;3.10;;;;;;;40.93;19.05;100745.74;1912195;75;21015;-61
2021/07/30 09:04:40;;;;;;;7.30;3.12;;;;;;;40.97;18.89;100738.07;1912182;75;21090;-60
2021/07/30 09:07:09;;;;;;;6.50;3.12;;;;;;;40.76;18.98;100736.18;1912158;75;21045;-60
2021/07/30 09:09:38;;;;;;;11.80;3.30;;;;;;;40.78;19.38;100740.91;1912135;75;21030;-61
2021/07/30 09:12:07;;;;;;;8.70;3.90;;;;;;;40.77;19.89;100736.48;1912071;75;21104;-61
2021/07/30 09:14:44;;;;;;;6.47;2.70;;;;;;;40.78;19.76;100738.16;1912167;75;21465;-61
2021/07/30 09:17:12;;;;;;;7.35;2.72;;;;;;;40.81;19.69;100734.33;1912173;75;21113;-61
2021/07/30 09:20:02;;;;;;;8.30;2.67;;;;;;;40.75;18.63;100732.59;1912164;75;21047;-60
2021/07/30 09:22:34;;;;;;;5.37;2.72;;;;;;;40.60;19.39;100727.77;1906414;74;21078;-61
2021/07/30 09:25:04;;;;;;;9.08;2.25;;;;;;;40.86;19.34;100732.17;1902879;75;21465;-61
2021/07/30 09:27:34;;;;;;;6.20;2.33;;;;;;;41.04;18.71;100730.41;1905642;75;21031;-61
2021/07/30 09:30:15;;;;;;;4.92;2.33;;;;;;;41.22;17.98;100728.34;1905645;75;21027;-60
2021/07/30 09:32:44;;;;;;;4.20;2.60;;;;;;;41.18;17.77;100731.33;1905541;74;21027;-61
2021/07/30 09:35:13;;;;;;;5.35;2.62;;;;;;;40.84;17.76;100728.84;1905520;75;21074;-60
2021/07/30 09:37:42;;;;;;;7.20;2.90;;;;;;;40.32;17.33;100725.51;1905515;74;21019;-60
2021/07/30 09:43:24;;;;;;;6.85;3.10;;;;;;;40.31;17.93;100715.55;1874236;76;21047;-61
2021/07/30 09:46:02;;;;;;;8.88;3.08;;;;;;;40.40;18.44;100714.58;1874289;76;21039;-61
2021/07/30 09:48:49;;;;;;;4.92;2.62;;;;;;;40.54;18.03;100716.36;1865844;76;21537;-60
2021/07/30 09:51:19;;;;;;;5.97;2.83;;;;;;;40.54;18.19;100706.70;1874326;76;21031;-60
2021/07/30 09:53:48;;;;;;;9.43;2.95;;;;;;;40.45;19.29;100704.98;1874398;76;21035;-61
2021/07/30 09:56:19;;;;;;;6.87;2.95;;;;;;;40.61;19.66;100704.58;1874458;76;21102;-60
2021/07/30 09:58:50;;;;;;;11.23;3.50;;;;;;;40.71;18.57;100701.92;1874701;76;21129;-60
2021/07/30 10:01:23;;;;;;;7.28;3.00;;;;;;;40.68;18.91;100700.23;1874362;76;21459;-60
2021/07/30 10:03:54;;;;;;;6.87;2.80;;;;;;;40.82;19.40;100703.41;1874460;75;21031;-61
2021/07/30 10:06:24;;;;;;;8.83;2.92;;;;;;;40.94;18.49;100693.03;1874506;76;21089;-61
2021/07/30 10:08:53;;;;;;;8.23;3.10;;;;;;;40.87;18.84;100697.38;1874360;76;21522;-60
2021/07/30 10:11:22;;;;;;;8.58;2.85;;;;;;;40.96;18.68;100688.08;1874566;76;21524;-60
2021/07/30 10:13:51;;;;;;;4.47;2.60;;;;;;;40.90;18.97;100689.14;1874327;76;21055;-60
2021/07/30 10:16:21;;;;;;;6.92;3.17;;;;;;;40.74;18.81;100688.14;1874542;76;21407;-61
2021/07/30 10:18:50;;;;;;;9.23;2.87;;;;;;;40.43;18.27;100677.36;1874323;76;21529;-61
2021/07/30 10:21:24;;;;;;;7.75;3.47;;;;;;;40.03;18.83;100678.02;1874239;76;21028;-60
2021/07/30 10:23:53;;;;;;;6.00;3.05;;;;;;;40.05;19.08;100683.28;1874247;76;21055;-61
2021/07/30 10:26:29;;;;;;;6.97;3.00;;;;;;;40.03;19.14;100682.70;1874240;76;21016;-61
2021/07/30 10:29:01;;;;;;;8.80;2.90;;;;;;;39.86;19.50;100682.20;1874170;76;21113;-61
2021/07/30 10:31:49;;;;;;;;;;;;;;;39.87;19.93;100676.95;1877211;76;21490;-60
2021/07/30 10:34:35;;;;;;;5.83;2.92;;;;;;;39.75;20.11;100673.52;1874263;76;20143;-60
2021/07/30 10:37:04;;;;;;;6.25;2.87;;;;;;;39.62;19.71;100673.88;1870132;76;21091;-61
2021/07/30 10:39:33;;;;;;;5.08;2.70;;;;;;;39.45;19.64;100670.61;1874076;76;21498;-61
2021/07/30 10:42:12;;;;;;;6.90;2.92;;;;;;;39.05;19.48;100666.16;1879732;76;21507;-61
2021/07/30 10:45:18;;;;;;;8.85;2.98;;;;;;;38.52;20.01;100661.35;1891754;75;21048;-61
2021/07/30 10:47:47;;;;;;;7.58;2.90;;;;;;;38.20;20.39;100661.88;1891629;76;21012;-62
2021/07/30 10:51:01;;;;;;;5.92;2.70;;;;;;;37.91;20.57;100662.36;1891770;75;21016;-61
2021/07/30 10:53:38;;;;;;;8.28;2.83;;;;;;;37.50;20.89;100660.09;1885780;75;21114;-61
2021/07/30 10:56:09;;;;;;;5.65;2.83;;;;;;;37.47;20.69;100652.33;1891608;75;21048;-61
2021/07/30 10:58:50;;;;;;;7.47;2.70;;;;;;;37.17;21.14;100653.30;1891748;76;21535;-61
2021/07/30 11:01:21;;;;;;;6.95;3.17;;;;;;;37.00;21.64;100646.80;1892005;76;21059;-60
2021/07/30 11:03:58;;;;;;;4.97;2.63;;;;;;;36.60;21.85;100646.91;1892020;76;21122;-61
2021/07/30 11:06:29;;;;;;;5.15;3.08;;;;;;;36.46;21.93;100647.63;1891629;76;21431;-61
2021/07/30 11:09:04;;;;;;;6.22;2.98;;;;;;;36.46;22.25;100638.03;1891727;76;21048;-60
2021/07/30 11:11:57;;;;;;;6.28;2.70;;;;;;;36.48;22.42;100638.66;1891728;76;21064;-61
2021/07/30 11:14:34;;;;;;;9.13;3.08;;;;;;;36.57;22.66;100643.25;1891877;76;21133;-60
2021/07/30 11:17:14;;;;;;;6.65;3.10;;;;;;;36.58;22.59;100639.45;1891634;76;21060;-61
2021/07/30 11:19:49;;;;;;;4.72;2.85;;;;;;;36.40;22.62;100638.97;1891827;76;21114;-61
2021/07/30 11:22:20;;;;;;;7.30;3.30;;;;;;;36.10;22.57;100632.94;1891722;75;21024;-60
2021/07/30 11:24:50;;;;;;;5.92;3.12;;;;;;;35.64;22.55;100632.13;1892019;76;21007;-60
2021/07/30 11:27:21;;;;;;;5.55;2.98;;;;;;;35.49;23.41;100631.14;1891701;76;21090;-61
2021/07/30 11:29:52;;;;;;;5.60;2.70;;;;;;;35.42;23.32;100622.17;1891703;75;21082;-61
2021/07/30 11:32:23;;;;;;;6.12;3.62;;;;;;;35.50;23.39;100628.16;1891749;76;21106;-60
2021/07/30 11:34:53;;;;;;;7.10;3.25;;;;;;;35.68;24.05;100613.63;1892155;75;21122;-61
2021/07/30 11:37:34;;;;;;;9.00;3.37;;;;;;;35.80;24.50;100616.48;1891840;76;21513;-60
2021/07/30 11:40:01;;;;;;;5.35;3.12;;;;;;;35.75;23.33;100601.27;1890622;76;21522;-61
2021/07/30 11:42:34;;;;;;;6.60;3.20;;;;;;;35.75;23.33;100601.27;1891821;76;21072;-61
2021/07/30 11:45:07;;;;;;;7.83;2.98;;;;;;;35.68;22.71;100605.41;1891925;75;21044;-60